Terminal Aerodrome Forecast
Issued by NWS

Home | Current Version | Previous Version | Graphics & Text | Print | Product List | Glossary On
Versions: 1 2 3 4 5 6 7 8 9 10 11 12 13 14
000
FTUS43 KTOP 032000 AAA
TAFFOE
TAF AMD
KFOE 032030Z 0321/0418 35015G20KT P6SM SCT025 BKN035 OVC150
     FM041300 01012KT 5SM -SN BR SCT025 BKN040
     FM041600 01012KT P6SM BKN090=

USA.gov is the U.S. government's official web portal to all federal, state and local government web resources and services.